Time;durP1;ratioP1;P1;durP2;ratioP2;P2;SDS_P1;SDS_P2;PMS_P1;PMS_P2;Temp;Humidity;BMP_temperature;BMP_pressure;BME280_temperature;BME280_humidity;BME280_pressure;Samples;Min_cycle;Max_cycle;Signal;HPM_P1;HPM_P2
2021/03/31 00:00:56;;;;;;;11.97;7.07;;;6.20;99.90;;;;;;5106279;28;20662;-72
2021/03/31 00:03:23;;;;;;;11.40;6.77;;;6.40;99.90;;;;;;5100708;28;20205;-72
2021/03/31 00:05:50;;;;;;;13.50;7.27;;;6.30;99.90;;;;;;5106390;28;20209;-72
2021/03/31 00:08:16;;;;;;;12.63;6.80;;;6.40;99.90;;;;;;5111299;28;20225;-72
2021/03/31 00:10:45;;;;;;;13.17;7.00;;;6.60;99.90;;;;;;5111944;28;20201;-72
2021/03/31 00:13:13;;;;;;;16.67;7.50;;;6.70;99.90;;;;;;5105044;28;20198;-72
2021/03/31 00:15:40;;;;;;;14.27;7.90;;;6.70;99.90;;;;;;5100570;28;20201;-73
2021/03/31 00:18:08;;;;;;;10.50;5.90;;;6.80;99.90;;;;;;5094093;28;20259;-73
2021/03/31 00:20:35;;;;;;;11.73;5.70;;;6.60;99.90;;;;;;5103956;28;20675;-72
2021/03/31 00:23:04;;;;;;;10.87;6.43;;;5.80;99.90;;;;;;5100589;28;20595;-72
2021/03/31 00:25:30;;;;;;;12.97;7.47;;;5.70;99.90;;;;;;5102660;28;20681;-72
2021/03/31 00:27:57;;;;;;;12.03;6.70;;;6.00;99.90;;;;;;5096180;28;20225;-73
2021/03/31 00:30:25;;;;;;;13.50;7.37;;;6.20;99.90;;;;;;5101451;28;20211;-72
2021/03/31 00:32:52;;;;;;;16.00;7.47;;;6.40;99.90;;;;;;5099121;28;20566;-72
2021/03/31 00:35:18;;;;;;;15.30;7.13;;;6.20;99.90;;;;;;5102920;28;20204;-73
2021/03/31 00:37:45;;;;;;;11.70;6.97;;;6.30;99.90;;;;;;5098319;28;20208;-73
2021/03/31 00:40:14;;;;;;;11.83;6.50;;;6.60;99.90;;;;;;5099981;28;20233;-73
2021/03/31 00:42:42;;;;;;;12.80;6.67;;;6.60;99.90;;;;;;5104727;28;20265;-73
2021/03/31 00:45:10;;;;;;;14.07;6.20;;;6.40;99.90;;;;;;5105156;28;20262;-73
2021/03/31 00:47:38;;;;;;;12.03;6.17;;;6.40;99.90;;;;;;5109058;28;20224;-73
2021/03/31 00:50:07;;;;;;;11.37;6.20;;;6.20;99.90;;;;;;5099510;28;20198;-74
2021/03/31 00:52:34;;;;;;;11.47;6.73;;;6.20;99.90;;;;;;5106852;28;20258;-73
2021/03/31 00:55:01;;;;;;;12.63;6.97;;;6.20;99.90;;;;;;5110026;28;20212;-73
2021/03/31 00:57:28;;;;;;;5.87;4.40;;;6.30;99.90;;;;;;5109798;28;20204;-73
2021/03/31 00:59:54;;;;;;;9.53;5.80;;;5.90;99.90;;;;;;5109041;28;20200;-73
2021/03/31 01:02:21;;;;;;;10.30;5.83;;;5.50;99.90;;;;;;5111570;28;20562;-73
2021/03/31 01:04:48;;;;;;;9.07;5.80;;;5.50;99.90;;;;;;5109745;28;20209;-73
2021/03/31 01:07:15;;;;;;;8.97;5.57;;;5.40;99.90;;;;;;5102736;28;20201;-73
2021/03/31 01:09:42;;;;;;;8.00;5.53;;;5.30;99.90;;;;;;5106866;28;20197;-73
2021/03/31 01:12:20;;;;;;;10.27;6.17;;;5.20;99.90;;;;;;5111888;28;20212;-73
2021/03/31 01:14:56;;;;;;;9.90;6.60;;;5.20;99.90;;;;;;5104100;28;20235;-73
2021/03/31 01:17:28;;;;;;;10.33;6.30;;;5.30;99.90;;;;;;5110049;28;20203;-73
2021/03/31 01:20:30;;;;;;;11.70;7.10;;;5.30;99.90;;;;;;5103574;28;20240;-73
2021/03/31 01:23:33;;;;;;;11.53;6.30;;;5.30;99.90;;;;;;5105101;28;20200;-73
2021/03/31 01:26:05;;;;;;;14.17;7.20;;;5.30;99.90;;;;;;5103194;28;20201;-73
2021/03/31 01:28:53;;;;;;;11.80;6.80;;;5.20;99.90;;;;;;5109529;28;20274;-73
2021/03/31 01:31:31;;;;;;;32.53;8.03;;;5.10;99.90;;;;;;5105124;28;20565;-73
2021/03/31 01:34:11;;;;;;;12.30;7.20;;;5.10;99.90;;;;;;5109636;28;20200;-72
2021/03/31 01:36:40;;;;;;;10.53;6.90;;;5.30;99.90;;;;;;5108281;28;20200;-73
2021/03/31 01:39:10;;;;;;;13.57;7.33;;;5.50;99.90;;;;;;5110776;28;20731;-73
2021/03/31 01:41:38;;;;;;;13.33;6.70;;;5.50;99.90;;;;;;5108442;28;20217;-73
2021/03/31 01:44:09;;;;;;;13.83;7.43;;;5.60;99.90;;;;;;5104872;28;20201;-73
2021/03/31 01:46:38;;;;;;;12.30;7.23;;;5.70;99.90;;;;;;5110092;28;20253;-73
2021/03/31 01:49:06;;;;;;;13.87;6.97;;;5.70;99.90;;;;;;5099409;28;20574;-73
2021/03/31 01:51:34;;;;;;;12.93;7.43;;;6.00;99.90;;;;;;5110141;28;20212;-73
2021/03/31 01:54:03;;;;;;;11.50;6.70;;;6.10;99.90;;;;;;5106053;28;20822;-72
2021/03/31 01:56:31;;;;;;;11.37;6.50;;;6.20;99.90;;;;;;5105746;28;20540;-72
2021/03/31 01:58:59;;;;;;;11.83;7.13;;;6.00;99.90;;;;;;5107790;28;20201;-72
2021/03/31 02:01:27;;;;;;;11.47;6.63;;;5.90;99.90;;;;;;5105793;28;20658;-72
2021/03/31 02:03:57;;;;;;;14.37;6.70;;;5.90;99.90;;;;;;5106392;28;20209;-72
2021/03/31 02:06:27;;;;;;;10.63;6.50;;;5.60;99.90;;;;;;5110376;28;20619;-68
2021/03/31 02:08:54;;;;;;;13.73;6.80;;;5.30;99.90;;;;;;5110658;28;20247;-72
2021/03/31 02:11:24;;;;;;;10.23;6.60;;;4.90;99.90;;;;;;5105664;28;20251;-72
2021/03/31 02:13:51;;;;;;;12.50;7.27;;;4.80;99.90;;;;;;5103058;28;20202;-73
2021/03/31 02:16:18;;;;;;;12.10;6.70;;;4.90;99.90;;;;;;5108105;28;20232;-73
2021/03/31 02:18:46;;;;;;;10.93;6.70;;;5.10;99.90;;;;;;5106977;28;20632;-73
2021/03/31 02:21:13;;;;;;;10.40;6.77;;;5.30;99.90;;;;;;5109900;28;20703;-73
2021/03/31 02:23:41;;;;;;;12.53;6.63;;;5.10;99.90;;;;;;5101816;28;20198;-73
2021/03/31 02:26:08;;;;;;;12.87;6.90;;;5.20;99.90;;;;;;5110172;28;20205;-73
2021/03/31 02:28:36;;;;;;;12.03;7.07;;;5.20;99.90;;;;;;5099334;28;20686;-73
2021/03/31 02:31:04;;;;;;;11.07;6.53;;;5.30;99.90;;;;;;5107501;28;20204;-73
2021/03/31 02:33:32;;;;;;;13.67;6.93;;;5.30;99.90;;;;;;5103042;28;20204;-73
2021/03/31 02:35:59;;;;;;;10.50;6.37;;;5.20;99.90;;;;;;5109870;28;20265;-73
2021/03/31 02:38:26;;;;;;;13.70;7.33;;;5.10;99.90;;;;;;5100394;28;20197;-73
2021/03/31 02:40:53;;;;;;;11.97;7.03;;;5.10;99.90;;;;;;5108992;28;20209;-73
2021/03/31 02:43:22;;;;;;;13.63;7.07;;;5.20;99.90;;;;;;5096934;28;20202;-73
2021/03/31 02:45:53;;;;;;;13.90;7.10;;;5.10;99.90;;;;;;5104632;28;20201;-73
2021/03/31 02:48:21;;;;;;;12.60;7.03;;;5.20;99.90;;;;;;5100754;28;20333;-73
2021/03/31 02:50:48;;;;;;;14.83;8.10;;;5.10;99.90;;;;;;5105124;28;20670;-73
2021/03/31 02:53:16;;;;;;;11.33;6.37;;;5.00;99.90;;;;;;5097970;28;20202;-73
2021/03/31 02:55:42;;;;;;;11.20;6.27;;;4.70;99.90;;;;;;5107742;28;20208;-73
2021/03/31 02:58:11;;;;;;;11.90;6.70;;;4.40;99.90;;;;;;5095320;28;20208;-73
2021/03/31 03:00:37;;;;;;;12.37;7.00;;;4.20;99.90;;;;;;5108886;28;20204;-73
2021/03/31 03:03:07;;;;;;;14.70;7.33;;;4.20;99.90;;;;;;5104886;28;20717;-73
2021/03/31 03:05:34;;;;;;;13.40;7.07;;;4.20;99.90;;;;;;5101023;28;20229;-73
2021/03/31 03:08:01;;;;;;;12.00;6.90;;;4.20;99.90;;;;;;5107603;28;20225;-73
2021/03/31 03:10:28;;;;;;;12.70;6.70;;;4.30;99.90;;;;;;5108411;28;20205;-73
2021/03/31 03:12:56;;;;;;;12.60;6.47;;;4.30;99.90;;;;;;5109885;28;20216;-73
2021/03/31 03:15:26;;;;;;;12.37;6.97;;;4.30;99.90;;;;;;5101905;28;20708;-73
2021/03/31 03:17:52;;;;;;;13.93;6.17;;;4.20;99.90;;;;;;5099062;28;20270;-73
2021/03/31 03:20:20;;;;;;;12.40;6.37;;;4.10;99.90;;;;;;5105376;28;20201;-73
2021/03/31 03:22:50;;;;;;;12.83;6.97;;;4.10;99.90;;;;;;5107937;28;20201;-73
2021/03/31 03:25:20;;;;;;;14.80;7.80;;;4.10;99.90;;;;;;5111215;28;20205;-73
2021/03/31 03:27:47;;;;;;;14.57;7.33;;;4.10;99.90;;;;;;5109683;28;20204;-73
2021/03/31 03:30:16;;;;;;;14.17;7.37;;;4.20;99.90;;;;;;5106323;28;20209;-73
2021/03/31 03:32:45;;;;;;;15.83;7.53;;;4.10;99.90;;;;;;5107525;28;20213;-73
2021/03/31 03:35:14;;;;;;;13.77;7.17;;;4.10;99.90;;;;;;5106998;28;20234;-73
2021/03/31 03:37:43;;;;;;;14.93;7.80;;;4.10;99.90;;;;;;5109828;28;20228;-73
2021/03/31 03:40:11;;;;;;;11.17;6.07;;;4.20;99.90;;;;;;5103140;28;20563;-73
2021/03/31 03:42:38;;;;;;;10.80;5.60;;;4.20;99.90;;;;;;5107473;28;20201;-73
2021/03/31 03:45:06;;;;;;;12.27;6.60;;;4.30;99.90;;;;;;5106128;28;20216;-73
2021/03/31 03:47:33;;;;;;;10.70;6.10;;;4.20;99.90;;;;;;5109371;28;20235;-73
2021/03/31 03:50:01;;;;;;;11.87;6.50;;;4.00;99.90;;;;;;5098505;28;20616;-73
2021/03/31 03:52:28;;;;;;;8.93;6.20;;;3.90;99.90;;;;;;5104779;28;20283;-73
2021/03/31 03:54:56;;;;;;;9.63;6.30;;;3.80;99.90;;;;;;5104234;28;20220;-73
2021/03/31 03:57:24;;;;;;;14.10;6.90;;;3.80;99.90;;;;;;5104904;28;20657;-73
2021/03/31 03:59:51;;;;;;;12.50;6.70;;;3.90;99.90;;;;;;5108382;28;20205;-73
2021/03/31 04:02:17;;;;;;;11.63;6.30;;;4.00;99.90;;;;;;5104087;28;20209;-72
2021/03/31 04:04:44;;;;;;;13.50;6.97;;;4.00;99.90;;;;;;5100538;28;20205;-72
2021/03/31 04:07:11;;;;;;;12.93;7.30;;;4.00;99.90;;;;;;5108290;28;20677;-72
2021/03/31 04:09:40;;;;;;;12.53;6.77;;;4.00;99.90;;;;;;5108903;28;20217;-72
2021/03/31 04:12:09;;;;;;;15.50;7.90;;;4.10;99.90;;;;;;5105409;28;20243;-73
2021/03/31 04:14:37;;;;;;;11.97;6.73;;;4.00;99.90;;;;;;5099902;28;20201;-72
2021/03/31 04:17:06;;;;;;;12.40;6.77;;;3.90;99.90;;;;;;5106006;28;20209;-72
2021/03/31 04:19:34;;;;;;;12.70;7.10;;;4.10;99.90;;;;;;5105017;28;20284;-72
2021/03/31 04:22:01;;;;;;;13.23;7.37;;;4.20;99.90;;;;;;5111039;28;20281;-73
2021/03/31 04:24:27;;;;;;;21.67;7.70;;;4.10;99.90;;;;;;5112945;28;20707;-73
2021/03/31 04:26:56;;;;;;;13.40;7.50;;;4.20;99.90;;;;;;5106546;28;20259;-72
2021/03/31 04:29:24;;;;;;;15.57;7.43;;;4.30;99.90;;;;;;5102605;28;20226;-72
2021/03/31 04:31:51;;;;;;;13.37;7.10;;;4.40;99.90;;;;;;5097050;28;20267;-73
2021/03/31 04:34:18;;;;;;;13.43;6.83;;;4.50;99.90;;;;;;5108237;28;20205;-73
2021/03/31 04:36:45;;;;;;;11.90;6.97;;;4.50;99.90;;;;;;5099945;28;20200;-73
2021/03/31 04:39:12;;;;;;;14.13;7.67;;;4.40;99.90;;;;;;5106910;28;20208;-73
2021/03/31 04:41:38;;;;;;;12.10;7.50;;;4.30;99.90;;;;;;5095192;28;20258;-73
2021/03/31 04:44:05;;;;;;;11.60;6.90;;;4.10;99.90;;;;;;5098547;28;20201;-72
2021/03/31 04:46:33;;;;;;;10.70;6.40;;;3.90;99.90;;;;;;5111235;28;20674;-72
2021/03/31 04:49:00;;;;;;;11.70;6.50;;;3.90;99.90;;;;;;5103709;28;20226;-73
2021/03/31 04:51:26;;;;;;;12.80;6.50;;;3.60;99.90;;;;;;5103628;28;20209;-72
2021/03/31 04:53:53;;;;;;;13.13;6.97;;;3.50;99.90;;;;;;5097881;28;20246;-73
2021/03/31 04:56:20;;;;;;;13.00;7.47;;;3.40;99.90;;;;;;5111380;28;20231;-72
2021/03/31 04:58:46;;;;;;;14.97;7.27;;;3.50;99.90;;;;;;5097366;28;20683;-72
2021/03/31 05:01:13;;;;;;;9.83;5.70;;;3.60;99.90;;;;;;5098055;28;20660;-73
2021/03/31 05:03:40;;;;;;;13.60;6.97;;;3.90;99.90;;;;;;5106872;28;20204;-72
2021/03/31 05:06:06;;;;;;;12.20;6.60;;;4.10;99.90;;;;;;5106905;28;20481;-72
2021/03/31 05:08:33;;;;;;;12.47;6.90;;;4.10;99.90;;;;;;5108147;27;20216;-72
2021/03/31 05:10:59;;;;;;;15.40;7.30;;;4.40;99.90;;;;;;5105382;28;20213;-72
2021/03/31 05:13:26;;;;;;;12.37;6.43;;;4.70;99.90;;;;;;5110853;28;20246;-72
2021/03/31 05:15:52;;;;;;;14.30;7.17;;;4.80;99.90;;;;;;5102634;28;20308;-72
2021/03/31 05:18:19;;;;;;;10.43;6.20;;;4.70;99.90;;;;;;5109571;28;20197;-73
2021/03/31 05:20:46;;;;;;;11.90;6.37;;;4.70;99.90;;;;;;5093038;27;20259;-73
2021/03/31 05:23:13;;;;;;;12.07;6.33;;;4.80;99.90;;;;;;5107621;28;20222;-73
2021/03/31 05:25:39;;;;;;;15.03;6.43;;;5.30;99.90;;;;;;5110996;28;20197;-73
2021/03/31 05:28:07;;;;;;;10.93;6.20;;;5.90;99.90;;;;;;5104098;28;20224;-73
2021/03/31 05:30:33;;;;;;;11.63;6.47;;;5.80;99.90;;;;;;5096971;28;20208;-73
2021/03/31 05:33:00;;;;;;;14.63;6.40;;;5.80;99.90;;;;;;5099229;28;20201;-72
2021/03/31 05:35:26;;;;;;;12.43;6.60;;;5.80;99.90;;;;;;5103952;28;20627;-73
2021/03/31 05:37:54;;;;;;;13.47;7.10;;;5.70;99.90;;;;;;5110602;28;20243;-73
2021/03/31 05:40:20;;;;;;;19.67;10.63;;;5.70;99.90;;;;;;5110037;28;20201;-67
2021/03/31 05:42:47;;;;;;;15.80;8.10;;;5.70;99.90;;;;;;5111048;28;20217;-67
2021/03/31 05:45:15;;;;;;;10.90;5.13;;;5.90;99.90;;;;;;5100790;28;20247;-67
2021/03/31 05:47:44;;;;;;;12.00;5.53;;;6.40;99.90;;;;;;5110771;28;20461;-67
2021/03/31 05:50:12;;;;;;;9.63;5.77;;;6.60;99.90;;;;;;5111689;28;20661;-67
2021/03/31 05:52:39;;;;;;;12.90;6.57;;;6.00;99.90;;;;;;5111629;28;20669;-67
2021/03/31 05:55:10;;;;;;;11.43;5.70;;;5.90;99.90;;;;;;5110923;28;20204;-67
2021/03/31 05:57:38;;;;;;;10.00;6.27;;;5.70;99.90;;;;;;5110110;28;20197;-72
2021/03/31 06:00:06;;;;;;;11.73;6.20;;;5.90;99.90;;;;;;5110753;28;20587;-72
2021/03/31 06:02:34;;;;;;;11.60;6.00;;;6.80;99.90;;;;;;5110069;28;20200;-73
2021/03/31 06:05:01;;;;;;;11.53;6.73;;;7.40;99.90;;;;;;5109478;28;20205;-73
2021/03/31 06:07:28;;;;;;;14.00;6.70;;;8.30;99.90;;;;;;5110789;28;20205;-73
2021/03/31 06:10:06;;;;;;;16.53;6.97;;;8.00;99.90;;;;;;5110344;28;20228;-72
2021/03/31 06:12:34;;;;;;;17.47;7.50;;;8.40;99.90;;;;;;5105888;28;20655;-72
2021/03/31 06:15:20;;;;;;;22.87;7.50;;;9.20;99.90;;;;;;5110561;28;20212;-68
2021/03/31 06:17:49;;;;;;;18.83;7.17;;;9.80;99.90;;;;;;5106504;28;20577;-68
2021/03/31 06:20:58;;;;;;;19.87;8.80;;;9.70;99.90;;;;;;5111186;28;20212;-73
2021/03/31 06:23:50;;;;;;;24.27;7.83;;;10.30;99.90;;;;;;5096520;28;20208;-67
2021/03/31 06:26:19;;;;;;;23.53;7.63;;;10.90;99.90;;;;;;5103125;28;20244;-67
2021/03/31 06:28:53;;;;;;;20.07;7.50;;;10.10;99.90;;;;;;5105919;28;20309;-68
2021/03/31 06:31:19;;;;;;;16.67;7.40;;;10.60;99.90;;;;;;5110619;28;20246;-73
2021/03/31 06:33:48;;;;;;;17.93;7.90;;;11.10;99.90;;;;;;5105726;28;20205;-73
2021/03/31 06:36:16;;;;;;;21.17;8.47;;;11.10;99.90;;;;;;5110978;28;20209;-72
2021/03/31 06:38:48;;;;;;;14.60;7.83;;;11.60;99.90;;;;;;5111152;28;20208;-73
2021/03/31 06:41:24;;;;;;;20.47;8.80;;;12.40;99.90;;;;;;5113817;28;20651;-68
2021/03/31 06:44:03;;;;;;;17.17;8.40;;;12.70;99.90;;;;;;5109299;28;20208;-73
2021/03/31 06:46:36;;;;;;;17.73;7.67;;;13.00;99.90;;;;;;5113120;28;20196;-69
2021/03/31 06:49:04;;;;;;;17.25;9.52;;;12.60;99.90;;;;;;5093852;28;20225;-69
2021/03/31 06:51:31;;;;;;;20.63;8.65;;;12.60;99.90;;;;;;5111335;28;20197;-73
2021/03/31 06:54:12;;;;;;;17.48;8.93;;;12.00;99.90;;;;;;5108402;28;20205;-73
2021/03/31 06:56:38;;;;;;;16.27;9.10;;;12.40;99.90;;;;;;5114457;28;20197;-73
2021/03/31 06:59:06;;;;;;;15.35;8.38;;;12.70;99.90;;;;;;5113313;28;20205;-73
2021/03/31 07:01:33;;;;;;;17.07;7.90;;;12.10;99.90;;;;;;5111408;28;20196;-73
2021/03/31 07:04:03;;;;;;;22.95;9.48;;;11.40;99.90;;;;;;5114014;28;20208;-73
2021/03/31 07:06:30;;;;;;;17.63;8.97;;;11.70;99.90;;;;;;5114185;28;20654;-73
2021/03/31 07:08:56;;;;;;;17.30;8.77;;;12.00;99.90;;;;;;5113819;28;20581;-69
2021/03/31 07:11:37;;;;;;;19.90;9.40;;;11.90;99.90;;;;;;5114022;28;20250;-72
2021/03/31 07:14:05;;;;;;;16.70;9.83;;;11.70;99.90;;;;;;5114031;28;20262;-67
2021/03/31 07:16:33;;;;;;;17.37;10.80;;;11.90;99.90;;;;;;5114118;28;20212;-68
2021/03/31 07:19:00;;;;;;;18.27;11.00;;;11.70;99.90;;;;;;5107181;28;20201;-73
2021/03/31 07:21:27;;;;;;;22.03;11.10;;;11.60;99.90;;;;;;5113957;28;20250;-72
2021/03/31 07:23:54;;;;;;;17.83;9.87;;;11.80;99.90;;;;;;5106471;28;20233;-67
2021/03/31 07:26:21;;;;;;;18.23;10.73;;;12.20;99.90;;;;;;5111532;28;20201;-67
2021/03/31 07:28:49;;;;;;;18.60;10.67;;;12.40;99.90;;;;;;5112757;28;20228;-72
2021/03/31 07:31:21;;;;;;;16.00;10.33;;;12.80;99.90;;;;;;5111630;28;20200;-74
2021/03/31 07:34:03;;;;;;;17.50;9.87;;;12.70;99.90;;;;;;5113983;28;20219;-73
2021/03/31 07:36:30;;;;;;;14.53;9.63;;;13.70;99.90;;;;;;5106337;28;20228;-69
2021/03/31 07:38:57;;;;;;;18.70;10.40;;;13.70;99.90;;;;;;5106212;28;20266;-68
2021/03/31 07:41:24;;;;;;;26.17;11.13;;;14.50;99.90;;;;;;5106830;28;20205;-68
2021/03/31 07:43:55;;;;;;;15.53;9.60;;;15.10;99.90;;;;;;5111129;28;20646;-73
2021/03/31 07:46:28;;;;;;;19.60;10.30;;;15.60;99.90;;;;;;5112786;28;20192;-67
2021/03/31 07:48:55;;;;;;;15.52;9.07;;;15.70;99.90;;;;;;5107453;28;20256;-67
2021/03/31 07:51:24;;;;;;;15.13;9.47;;;15.00;99.90;;;;;;5110310;28;20208;-73
2021/03/31 07:53:52;;;;;;;16.57;10.03;;;16.00;99.90;;;;;;5113186;28;20212;-68
2021/03/31 07:56:22;;;;;;;18.38;9.23;;;16.20;99.90;;;;;;5113200;28;20201;-73
2021/03/31 07:59:11;;;;;;;16.38;9.55;;;15.90;99.90;;;;;;5112953;28;20232;-73
2021/03/31 08:01:41;;;;;;;16.65;9.80;;;15.70;99.90;;;;;;5110137;28;20554;-73
2021/03/31 08:04:08;;;;;;;18.07;9.83;;;17.10;99.90;;;;;;5112405;28;20251;-72
2021/03/31 08:06:37;;;;;;;20.83;10.50;;;17.10;99.90;;;;;;5103822;28;20213;-72
2021/03/31 08:09:06;;;;;;;18.27;9.97;;;16.60;99.90;;;;;;5110148;28;20252;-73
2021/03/31 08:12:03;;;;;;;18.23;9.13;;;16.90;99.90;;;;;;5111297;28;20193;-73
2021/03/31 08:14:46;;;;;;;22.95;10.38;;;16.20;99.90;;;;;;5107842;28;20553;-73
2021/03/31 08:17:16;;;;;;;21.30;9.63;;;16.00;99.90;;;;;;5112224;28;20199;-73
2021/03/31 08:19:45;;;;;;;26.13;11.02;;;16.00;99.90;;;;;;5112866;28;20288;-73
2021/03/31 08:22:24;;;;;;;23.75;11.20;;;16.20;99.90;;;;;;5104325;28;20257;-73
2021/03/31 08:24:52;;;;;;;19.73;9.90;;;16.30;99.90;;;;;;5112187;28;20209;-73
2021/03/31 08:27:19;;;;;;;21.38;10.48;;;16.40;99.90;;;;;;5112623;28;20215;-72
2021/03/31 08:29:48;;;;;;;20.27;9.43;;;16.60;99.90;;;;;;5112973;28;20303;-73
2021/03/31 08:32:16;;;;;;;19.35;9.98;;;16.90;99.90;;;;;;5109537;28;20543;-73
2021/03/31 08:34:44;;;;;;;17.48;10.00;;;17.00;99.90;;;;;;5113034;28;20376;-73
2021/03/31 08:37:22;;;;;;;19.80;10.07;;;17.10;99.90;;;;;;5112239;28;20647;-73
2021/03/31 08:39:48;;;;;;;19.63;9.98;;;17.20;99.90;;;;;;5105660;28;20662;-73
2021/03/31 08:42:15;;;;;;;18.25;9.63;;;17.30;99.90;;;;;;5106914;28;20213;-72
2021/03/31 08:44:47;;;;;;;17.13;9.30;;;17.70;99.90;;;;;;5109242;28;20216;-72
2021/03/31 08:47:17;;;;;;;18.63;8.98;;;17.70;99.90;;;;;;5106430;28;20619;-72
2021/03/31 08:49:45;;;;;;;18.02;9.55;;;17.70;99.90;;;;;;5111933;28;20793;-72
2021/03/31 08:52:14;;;;;;;19.08;9.43;;;17.70;99.90;;;;;;5110473;28;20786;-72
2021/03/31 08:54:43;;;;;;;22.08;9.38;;;18.00;99.90;;;;;;5107203;28;20201;-73
2021/03/31 08:57:12;;;;;;;18.35;9.05;;;18.10;99.90;;;;;;5112208;28;20292;-73
2021/03/31 08:59:40;;;;;;;19.50;8.98;;;18.40;99.90;;;;;;5108819;28;20650;-73
2021/03/31 09:02:08;;;;;;;17.95;9.63;;;18.60;99.90;;;;;;5109767;28;20217;-72
2021/03/31 09:04:36;;;;;;;16.75;9.30;;;18.60;99.90;;;;;;5107436;28;20274;-72
2021/03/31 09:07:04;;;;;;;17.65;9.55;;;18.80;99.90;;;;;;5111005;28;20197;-72
2021/03/31 09:09:35;;;;;;;16.77;8.90;;;19.10;99.90;;;;;;5095985;28;20217;-72
2021/03/31 09:12:03;;;;;;;17.38;9.65;;;19.40;99.90;;;;;;5096767;28;20224;-73
2021/03/31 09:14:30;;;;;;;16.67;9.63;;;19.90;99.90;;;;;;5100713;28;20216;-73
2021/03/31 09:16:58;;;;;;;17.65;10.07;;;20.30;99.90;;;;;;5096266;28;20674;-73
2021/03/31 09:19:27;;;;;;;18.58;9.95;;;20.40;99.90;;;;;;5094548;28;20284;-73
2021/03/31 09:21:54;;;;;;;17.52;9.77;;;21.00;99.90;;;;;;5096486;28;20205;-73
2021/03/31 09:24:23;;;;;;;23.98;10.10;;;21.70;99.90;;;;;;5095912;28;20241;-72
2021/03/31 09:27:01;;;;;;;21.35;10.05;;;21.80;99.90;;;;;;5094129;28;20226;-73
2021/03/31 09:29:29;;;;;;;16.95;9.73;;;22.00;99.90;;;;;;5092750;28;20641;-73
2021/03/31 09:31:57;;;;;;;22.10;9.95;;;22.10;99.90;;;;;;5093688;28;20347;-73
2021/03/31 09:34:24;;;;;;;22.58;10.50;;;22.30;99.90;;;;;;5088615;28;20213;-73
2021/03/31 09:37:00;;;;;;;17.17;10.00;;;22.50;99.90;;;;;;5101415;28;20241;-73
2021/03/31 09:39:44;;;;;;;16.48;9.77;;;22.50;99.90;;;;;;5104430;28;20209;-72
2021/03/31 09:42:16;;;;;;;16.88;9.65;;;22.60;99.90;;;;;;5103884;28;20368;-73
2021/03/31 09:44:43;;;;;;;17.92;11.13;;;22.50;99.90;;;;;;5099791;28;20207;-72
2021/03/31 09:47:10;;;;;;;16.60;10.20;;;22.80;99.90;;;;;;5104039;28;20209;-73
2021/03/31 09:49:37;;;;;;;15.95;9.02;;;22.70;99.80;;;;;;5097832;28;20232;-73
2021/03/31 09:52:07;;;;;;;14.65;8.90;;;23.40;99.60;;;;;;5104806;28;20667;-73
2021/03/31 09:54:34;;;;;;;15.88;9.48;;;23.10;97.80;;;;;;5104298;28;20771;-73
2021/03/31 09:57:01;;;;;;;15.93;8.70;;;22.70;97.40;;;;;;5099992;28;20693;-73
2021/03/31 09:59:28;;;;;;;14.90;8.88;;;22.70;97.50;;;;;;5103325;28;20468;-73
2021/03/31 10:01:55;;;;;;;14.35;9.10;;;22.70;97.90;;;;;;5099952;28;20220;-73
2021/03/31 10:04:22;;;;;;;16.50;9.32;;;23.00;97.70;;;;;;5102209;28;20216;-73
2021/03/31 10:07:07;;;;;;;16.77;9.23;;;22.70;98.10;;;;;;5103188;28;20204;-72
2021/03/31 10:09:40;;;;;;;16.77;9.82;;;22.70;97.50;;;;;;5101863;28;20261;-73
2021/03/31 10:12:09;;;;;;;15.20;9.13;;;22.90;96.80;;;;;;5103095;28;20645;-73
2021/03/31 10:14:46;;;;;;;15.77;9.82;;;23.40;98.00;;;;;;5102288;28;20216;-73
2021/03/31 10:17:14;;;;;;;16.63;9.18;;;23.10;97.90;;;;;;5103259;28;20248;-73
2021/03/31 10:19:40;;;;;;;19.10;10.27;;;23.40;98.40;;;;;;5101897;28;20624;-73
2021/03/31 10:22:08;;;;;;;14.70;9.48;;;23.60;98.40;;;;;;5107418;28;20701;-73
2021/03/31 10:24:36;;;;;;;15.77;9.43;;;23.40;96.60;;;;;;5104840;28;20284;-72
2021/03/31 10:27:03;;;;;;;18.38;10.57;;;23.50;97.40;;;;;;5108026;28;20578;-72
2021/03/31 10:29:30;;;;;;;16.30;9.02;;;23.50;97.50;;;;;;5101869;28;20233;-72
2021/03/31 10:31:58;;;;;;;15.52;9.27;;;23.60;97.20;;;;;;5109285;28;20213;-73
2021/03/31 10:34:36;;;;;;;15.15;9.13;;;23.50;96.30;;;;;;5102532;28;20216;-72
2021/03/31 10:37:06;;;;;;;15.90;9.48;;;23.70;96.60;;;;;;5107245;28;20201;-73
2021/03/31 10:51:10;;;;;;;17.13;10.13;;;24.10;95.50;;;;;;5100840;28;20746;-72
2021/03/31 10:53:41;;;;;;;13.60;8.35;;;24.10;95.30;;;;;;5089823;28;20266;-72
2021/03/31 10:56:10;;;;;;;16.63;9.25;;;24.10;93.90;;;;;;5104774;28;20208;-72
2021/03/31 10:58:36;;;;;;;15.00;9.07;;;24.10;93.80;;;;;;5102006;28;20667;-72
2021/03/31 11:01:03;;;;;;;15.75;8.52;;;24.00;94.20;;;;;;5103660;28;20699;-72
2021/03/31 11:03:30;;;;;;;15.07;8.43;;;24.00;93.90;;;;;;5105674;28;20197;-72
2021/03/31 11:05:57;;;;;;;15.63;8.80;;;24.30;93.50;;;;;;5100580;28;20610;-72
2021/03/31 11:08:24;;;;;;;15.25;9.13;;;24.20;93.80;;;;;;5102925;28;20209;-72
2021/03/31 11:10:51;;;;;;;15.88;9.85;;;24.50;93.70;;;;;;5107407;28;20209;-72
2021/03/31 11:13:18;;;;;;;17.25;9.85;;;24.50;91.40;;;;;;5107141;28;20205;-72
2021/03/31 11:15:45;;;;;;;15.43;9.48;;;24.60;92.30;;;;;;5102491;28;20225;-72
2021/03/31 11:18:18;;;;;;;14.15;8.98;;;24.40;92.50;;;;;;5100781;28;20209;-72
2021/03/31 11:26:10;;;;;;;16.10;9.00;;;24.60;87.10;;;;;;5101736;28;20250;-72
2021/03/31 11:28:38;;;;;;;15.30;8.65;;;24.80;87.20;;;;;;5106287;28;20217;-72
2021/03/31 11:31:06;;;;;;;16.00;8.82;;;25.00;90.40;;;;;;5101634;28;20601;-72
2021/03/31 11:33:33;;;;;;;16.17;10.18;;;25.00;89.60;;;;;;5103560;28;20213;-72
2021/03/31 11:36:00;;;;;;;17.65;11.98;;;25.00;91.70;;;;;;5100911;28;20661;-72
2021/03/31 11:38:27;;;;;;;15.02;9.43;;;25.30;90.10;;;;;;5105130;28;20197;-72
2021/03/31 11:40:54;;;;;;;18.63;9.68;;;25.50;89.80;;;;;;5097482;28;20217;-72
2021/03/31 11:43:20;;;;;;;17.77;9.93;;;26.00;90.60;;;;;;5105963;28;20227;-72
2021/03/31 11:45:48;;;;;;;13.88;9.32;;;25.60;90.10;;;;;;5109474;28;20723;-72
2021/03/31 11:48:15;;;;;;;16.00;9.13;;;25.10;89.90;;;;;;5108191;28;20208;-72
2021/03/31 11:50:41;;;;;;;14.75;8.93;;;25.10;87.80;;;;;;5108282;28;20213;-73
2021/03/31 11:53:09;;;;;;;13.50;8.43;;;25.40;84.60;;;;;;5106435;28;20198;-73
2021/03/31 11:55:35;;;;;;;14.77;8.32;;;25.40;85.60;;;;;;5105665;28;20201;-72
2021/03/31 11:58:02;;;;;;;12.88;7.90;;;25.30;83.60;;;;;;5101627;28;20590;-72
2021/03/31 12:00:28;;;;;;;13.38;8.55;;;25.60;86.10;;;;;;5106505;28;20839;-72
2021/03/31 12:02:55;;;;;;;13.38;7.60;;;25.50;83.90;;;;;;5106902;28;20667;-72
2021/03/31 12:05:22;;;;;;;14.15;7.65;;;25.50;85.20;;;;;;5107824;28;20702;-72
2021/03/31 12:07:48;;;;;;;12.63;7.45;;;25.70;83.90;;;;;;5101179;28;20239;-72
2021/03/31 12:10:15;;;;;;;14.27;8.20;;;25.60;84.40;;;;;;5110956;28;20238;-72
2021/03/31 12:12:42;;;;;;;13.10;7.78;;;25.50;81.90;;;;;;5102219;28;20197;-72
2021/03/31 12:15:11;;;;;;;10.88;7.65;;;25.90;80.60;;;;;;5102452;28;20221;-72
2021/03/31 12:17:38;;;;;;;12.82;7.13;;;25.70;80.80;;;;;;5098669;28;20207;-72
2021/03/31 12:20:08;;;;;;;11.45;6.95;;;25.60;82.80;;;;;;5103343;28;20690;-72
2021/03/31 12:22:34;;;;;;;12.05;7.20;;;25.70;83.30;;;;;;5104265;28;20255;-72
2021/03/31 12:25:01;;;;;;;10.52;6.90;;;25.80;88.20;;;;;;5103339;28;20216;-72
2021/03/31 12:27:29;;;;;;;12.50;7.32;;;26.00;80.80;;;;;;5108096;28;20291;-72
2021/03/31 12:29:55;;;;;;;12.98;7.60;;;26.00;80.00;;;;;;5106947;28;20223;-72
2021/03/31 12:32:21;;;;;;;11.52;7.53;;;25.60;81.00;;;;;;5107758;28;20197;-72
2021/03/31 12:34:48;;;;;;;11.48;6.93;;;25.60;78.70;;;;;;5108365;28;20628;-72
2021/03/31 12:37:16;;;;;;;12.25;7.40;;;25.70;78.50;;;;;;5108455;28;20250;-72
2021/03/31 12:39:42;;;;;;;12.65;6.65;;;26.10;79.50;;;;;;5109700;28;20240;-73
2021/03/31 12:42:08;;;;;;;13.82;7.47;;;26.30;80.00;;;;;;5107044;28;20666;-72
2021/03/31 12:44:35;;;;;;;12.02;7.88;;;25.90;78.80;;;;;;5104674;28;20201;-72
2021/03/31 12:47:01;;;;;;;12.63;7.93;;;25.70;78.80;;;;;;5106214;28;20287;-72
2021/03/31 12:49:29;;;;;;;12.07;7.22;;;25.90;77.30;;;;;;5104769;28;20223;-73
2021/03/31 12:52:00;;;;;;;13.30;7.40;;;26.10;79.20;;;;;;5109409;28;20205;-72
2021/03/31 12:54:30;;;;;;;11.02;7.63;;;26.10;78.50;;;;;;5103277;28;20604;-72
2021/03/31 12:56:56;;;;;;;9.73;6.60;;;26.10;78.70;;;;;;5104165;28;20201;-72
2021/03/31 12:59:23;;;;;;;14.10;7.72;;;26.20;77.50;;;;;;5104866;28;20197;-73
2021/03/31 13:01:49;;;;;;;16.27;8.32;;;25.90;80.90;;;;;;5107439;28;20646;-72
2021/03/31 13:04:16;;;;;;;13.20;7.78;;;25.80;78.50;;;;;;5106216;28;20253;-72
2021/03/31 13:06:43;;;;;;;15.75;8.25;;;25.90;76.30;;;;;;5106904;28;20197;-72